Time;durP1;ratioP1;P1;durP2;ratioP2;P2;SDS_P1;SDS_P2;PMS_P1;PMS_P2;Temp;Humidity;BMP_temperature;BMP_pressure;BME280_temperature;BME280_humidity;BME280_pressure;Samples;Min_cycle;Max_cycle;Signal;HPM_P1;HPM_P2
2022/07/09 00:02:05;;;;;;;11.50;9.20;;;;;;;17.61;86.62;102742.66;5118238;28;20077;-60
2022/07/09 00:04:30;;;;;;;11.88;8.73;;;;;;;17.59;86.90;102734.75;5118287;28;20023;-61
2022/07/09 00:06:56;;;;;;;14.75;9.05;;;;;;;17.48;87.21;102734.00;5118197;28;20445;-61
2022/07/09 00:09:21;;;;;;;10.30;8.18;;;;;;;17.55;87.62;102737.44;5118064;28;20023;-61
2022/07/09 00:11:46;;;;;;;9.55;8.45;;;;;;;17.46;87.81;102737.56;5118202;28;20036;-60
2022/07/09 00:14:12;;;;;;;12.20;7.97;;;;;;;17.40;87.74;102726.13;5117969;28;20357;-61
2022/07/09 00:16:37;;;;;;;11.25;8.45;;;;;;;17.42;87.71;102736.72;5117472;28;20511;-60
2022/07/09 00:19:02;;;;;;;10.32;8.05;;;;;;;17.35;88.36;102732.38;5118107;28;20031;-60
2022/07/09 00:21:28;;;;;;;13.40;8.25;;;;;;;17.33;87.96;102732.38;5117973;28;20092;-61
2022/07/09 00:23:53;;;;;;;12.27;8.13;;;;;;;17.32;88.34;102738.56;5118218;28;20038;-60
2022/07/09 00:26:18;;;;;;;10.85;7.85;;;;;;;17.31;88.71;102730.69;5117967;28;20042;-61
2022/07/09 00:28:44;;;;;;;11.75;8.52;;;;;;;17.24;88.85;102735.16;5116369;28;20096;-61
2022/07/09 00:31:09;;;;;;;9.20;8.30;;;;;;;17.24;88.90;102729.84;5117596;28;20030;-61
2022/07/09 00:33:35;;;;;;;10.80;8.55;;;;;;;17.17;89.24;102738.75;5117700;28;20035;-61
2022/07/09 00:36:00;;;;;;;10.07;8.32;;;;;;;17.20;89.15;102732.53;5117533;28;20432;-60
2022/07/09 00:38:25;;;;;;;11.27;9.30;;;;;;;17.15;89.77;102735.22;5117546;28;20111;-61
2022/07/09 00:40:51;;;;;;;13.63;9.70;;;;;;;17.17;89.43;102727.28;5117586;28;20035;-60
2022/07/09 00:43:18;;;;;;;11.77;9.25;;;;;;;17.16;89.31;102730.81;5117394;28;20057;-60
2022/07/09 00:45:44;;;;;;;12.45;9.85;;;;;;;17.16;89.16;102726.41;5117362;28;20439;-60
2022/07/09 00:48:09;;;;;;;12.63;10.25;;;;;;;17.05;89.82;102726.53;5117295;28;20058;-60
2022/07/09 00:50:35;;;;;;;12.45;10.13;;;;;;;17.02;89.83;102717.75;5117319;28;20055;-59
2022/07/09 00:53:01;;;;;;;13.38;9.90;;;;;;;17.01;90.11;102726.56;5116968;28;20043;-60
2022/07/09 00:55:26;;;;;;;12.88;10.38;;;;;;;16.99;90.16;102729.22;5117494;28;20035;-60
2022/07/09 00:57:51;;;;;;;15.77;10.73;;;;;;;16.97;90.32;102723.06;5117201;28;20044;-60
2022/07/09 01:00:18;;;;;;;13.50;10.05;;;;;;;16.92;90.25;102722.25;5116977;28;20433;-61
2022/07/09 01:02:44;;;;;;;13.00;10.23;;;;;;;16.96;90.41;102728.41;5117211;28;20027;-61
2022/07/09 01:05:10;;;;;;;17.60;10.77;;;;;;;16.88;90.36;102720.53;5116993;28;20064;-60
2022/07/09 01:07:35;;;;;;;13.35;11.30;;;;;;;16.85;90.99;102720.56;5117267;28;20106;-59
2022/07/09 01:10:00;;;;;;;13.93;11.05;;;;;;;16.84;91.14;102725.84;5117021;28;20445;-59
2022/07/09 01:12:26;;;;;;;12.65;10.95;;;;;;;16.84;90.85;102717.91;5117182;28;20114;-60
2022/07/09 01:14:51;;;;;;;12.75;11.05;;;;;;;16.82;90.95;102717.94;5117143;28;20454;-59
2022/07/09 01:17:17;;;;;;;13.43;11.65;;;;;;;16.80;91.48;102711.78;5116367;28;20031;-61
2022/07/09 01:19:42;;;;;;;17.23;12.68;;;;;;;16.82;91.68;102711.75;5117370;28;20028;-59
2022/07/09 01:22:08;;;;;;;15.48;11.60;;;;;;;16.69;91.58;102698.66;5116995;28;20114;-61
2022/07/09 01:24:34;;;;;;;15.25;11.80;;;;;;;16.74;91.85;102703.03;5117222;28;20042;-61
2022/07/09 01:26:59;;;;;;;13.75;11.68;;;;;;;16.70;91.79;102699.53;5116534;28;20369;-60
2022/07/09 01:29:25;;;;;;;15.82;12.70;;;;;;;16.70;92.36;102703.06;5116332;28;20031;-59
2022/07/09 01:31:50;;;;;;;18.13;12.47;;;;;;;16.71;92.55;102696.00;5116679;28;20039;-60
2022/07/09 01:34:15;;;;;;;13.93;12.52;;;;;;;16.64;92.63;102694.31;5116527;28;20580;-60
2022/07/09 01:36:41;;;;;;;17.17;12.80;;;;;;;16.59;92.39;102693.47;5116707;28;20035;-60
2022/07/09 01:39:06;;;;;;;15.52;12.30;;;;;;;16.67;92.07;102691.63;5116593;28;20119;-60
2022/07/09 01:41:32;;;;;;;14.30;12.80;;;;;;;16.57;92.30;102682.00;5116118;28;20465;-60
2022/07/09 01:43:57;;;;;;;13.27;11.88;;;;;;;16.53;92.89;102680.28;5116269;28;20067;-61
2022/07/09 01:46:23;;;;;;;16.00;12.20;;;;;;;16.51;92.65;102679.41;5116225;28;20038;-60
2022/07/09 01:48:48;;;;;;;15.63;12.63;;;;;;;16.48;92.51;102682.97;5116222;28;20057;-60
2022/07/09 01:51:13;;;;;;;15.20;12.23;;;;;;;16.46;92.36;102683.84;5116258;28;20028;-59
2022/07/09 01:53:39;;;;;;;18.42;13.13;;;;;;;16.42;92.88;102683.03;5116290;28;20036;-59
2022/07/09 01:56:09;;;;;;;16.75;12.20;;;;;;;16.39;93.25;102684.81;5116050;28;20056;-58
2022/07/09 01:58:35;;;;;;;15.40;12.60;;;;;;;16.34;93.39;102677.78;5115899;28;20514;-60
2022/07/09 02:01:01;;;;;;;15.43;12.32;;;;;;;16.31;93.28;102684.84;5116220;28;20035;-60
2022/07/09 02:03:26;;;;;;;17.85;12.18;;;;;;;16.32;93.21;102676.03;5115973;28;20168;-60
2022/07/09 02:05:52;;;;;;;15.05;12.48;;;;;;;16.27;93.52;102669.94;5115791;28;20338;-60
2022/07/09 02:08:17;;;;;;;13.75;12.10;;;;;;;16.24;93.40;102675.25;5115719;28;20031;-59
2022/07/09 02:10:42;;;;;;;16.08;12.25;;;;;;;16.17;93.74;102679.69;5116183;28;20036;-60
2022/07/09 02:13:07;;;;;;;14.00;12.43;;;;;;;16.16;94.21;102670.00;5115381;28;20058;-60
2022/07/09 02:15:33;;;;;;;14.50;12.27;;;;;;;16.16;94.18;102670.00;5115833;28;20039;-60
2022/07/09 02:17:59;;;;;;;13.93;12.05;;;;;;;16.05;93.93;102652.50;5115550;28;20028;-60
2022/07/09 02:20:24;;;;;;;16.40;13.02;;;;;;;16.05;94.27;102676.25;5115905;28;20027;-60
2022/07/09 02:22:50;;;;;;;13.20;11.52;;;;;;;16.06;94.24;102667.44;5115609;28;20024;-60
2022/07/09 02:25:15;;;;;;;16.13;12.18;;;;;;;16.06;94.05;102659.53;5115823;28;20028;-60
2022/07/09 02:27:40;;;;;;;13.15;11.85;;;;;;;16.03;94.43;102657.78;5115206;28;20051;-61
2022/07/09 02:30:06;;;;;;;14.50;11.93;;;;;;;16.00;94.14;102666.59;5115324;28;20085;-60
2022/07/09 02:32:31;;;;;;;13.82;11.88;;;;;;;15.99;94.41;102663.97;5116247;28;20027;-60
2022/07/09 02:34:57;;;;;;;13.63;12.23;;;;;;;15.95;94.08;102655.19;5115523;28;20070;-60
2022/07/09 02:37:22;;;;;;;15.00;12.27;;;;;;;15.92;94.63;102654.34;5116040;28;20031;-59
2022/07/09 02:39:47;;;;;;;16.63;12.57;;;;;;;15.89;94.43;102659.66;5115348;28;20028;-60
2022/07/09 02:42:12;;;;;;;16.38;12.50;;;;;;;15.87;94.50;102662.28;5115212;28;20055;-60
2022/07/09 02:44:38;;;;;;;15.35;13.07;;;;;;;15.86;94.63;102662.31;5115423;28;20375;-60
2022/07/09 02:47:03;;;;;;;16.55;13.07;;;;;;;15.78;94.54;102651.78;5115916;28;20036;-61
2022/07/09 02:49:29;;;;;;;14.82;12.50;;;;;;;15.79;95.00;102653.53;5115119;28;20035;-61
2022/07/09 02:51:57;;;;;;;15.02;12.05;;;;;;;15.84;94.66;102650.88;5114813;28;20081;-60
2022/07/09 02:54:22;;;;;;;15.10;12.63;;;;;;;15.78;95.32;102649.13;5115206;28;20027;-60
2022/07/09 02:56:48;;;;;;;18.20;13.90;;;;;;;15.79;95.22;102647.38;5115417;28;20183;-61
2022/07/09 02:59:13;;;;;;;15.13;12.98;;;;;;;15.80;94.96;102642.09;5114955;28;20055;-60
2022/07/09 03:01:39;;;;;;;17.60;13.75;;;;;;;15.74;95.60;102649.19;5115391;28;20024;-60
2022/07/09 03:04:05;;;;;;;17.88;15.05;;;;;;;15.68;95.79;102649.22;5115190;28;20031;-60
2022/07/09 03:06:30;;;;;;;18.67;14.85;;;;;;;15.69;95.78;102645.69;5115205;28;20114;-60
2022/07/09 03:08:55;;;;;;;17.23;14.73;;;;;;;15.68;95.99;102643.94;5115064;28;20024;-60
2022/07/09 03:11:20;;;;;;;15.73;14.07;;;;;;;15.68;95.69;102638.66;5115018;28;20035;-60
2022/07/09 03:13:46;;;;;;;15.05;13.45;;;;;;;15.73;95.47;102642.16;5114946;28;20438;-60
2022/07/09 03:16:11;;;;;;;17.83;14.88;;;;;;;15.66;95.66;102644.81;5115159;28;20027;-59
2022/07/09 03:18:38;;;;;;;16.45;13.85;;;;;;;15.61;95.58;102643.94;5115265;28;20506;-60
2022/07/09 03:21:04;;;;;;;18.80;15.13;;;;;;;15.61;95.73;102648.34;5115046;28;20035;-60
2022/07/09 03:23:29;;;;;;;18.38;15.05;;;;;;;15.60;95.52;102650.13;5115260;28;20334;-60
2022/07/09 03:25:55;;;;;;;21.02;16.35;;;;;;;15.53;95.89;102639.59;5114410;28;20027;-60
2022/07/09 03:28:20;;;;;;;21.63;17.55;;;;;;;15.53;96.52;102640.47;5114396;28;20057;-60
2022/07/09 03:30:46;;;;;;;22.95;19.52;;;;;;;15.53;96.77;102644.84;5114863;28;20088;-59
2022/07/09 03:33:11;;;;;;;25.25;19.38;;;;;;;15.47;97.11;102644.88;5114818;28;20083;-59
2022/07/09 03:35:38;;;;;;;25.63;20.77;;;;;;;15.46;97.57;102644.00;5115243;28;20119;-60
2022/07/09 03:38:04;;;;;;;24.90;20.67;;;;;;;15.42;97.64;102642.25;5115079;28;20028;-60
2022/07/09 03:40:30;;;;;;;27.75;21.92;;;;;;;15.48;98.11;102647.50;5114776;28;20461;-60
2022/07/09 03:42:55;;;;;;;30.33;22.83;;;;;;;15.44;98.09;102647.53;5114481;28;20028;-60
2022/07/09 03:45:20;;;;;;;30.27;22.08;;;;;;;15.47;97.76;102645.75;5115002;28;20054;-58
2022/07/09 03:47:48;;;;;;;30.38;22.55;;;;;;;15.40;97.51;102646.69;5114829;28;20200;-60
2022/07/09 03:50:13;;;;;;;27.55;22.30;;;;;;;15.40;97.96;102646.69;5114610;28;20031;-60
2022/07/09 03:52:39;;;;;;;28.75;23.02;;;;;;;15.47;97.22;102650.16;5115212;28;20038;-60
2022/07/09 03:55:05;;;;;;;24.92;21.60;;;;;;;15.46;97.36;102641.38;5114768;28;20044;-60
2022/07/09 03:57:31;;;;;;;31.85;23.00;;;;;;;15.40;97.78;102646.69;5114571;28;20032;-60
2022/07/09 03:59:56;;;;;;;30.25;24.17;;;;;;;15.41;98.47;102639.66;5114695;28;20130;-60
2022/07/09 04:02:22;;;;;;;29.58;23.23;;;;;;;15.41;98.37;102640.50;5114898;28;20044;-60
2022/07/09 04:04:47;;;;;;;31.83;25.17;;;;;;;15.45;99.10;102636.09;5116740;28;20039;-60
2022/07/09 04:07:12;;;;;;;30.42;25.02;;;;;;;15.42;99.18;102634.34;5118350;28;20077;-59
2022/07/09 04:09:37;;;;;;;33.65;25.48;;;;;;;15.46;99.41;102643.13;5118395;28;20035;-60
2022/07/09 04:12:03;;;;;;;33.38;26.17;;;;;;;15.35;99.45;102614.16;5118071;28;20528;-59
2022/07/09 04:14:28;;;;;;;35.08;27.52;;;;;;;15.39;99.83;102637.03;5118212;28;20028;-60
2022/07/09 04:16:53;;;;;;;36.50;27.02;;;;;;;15.45;99.89;102649.28;5118023;28;20027;-59
2022/07/09 04:19:19;;;;;;;37.28;27.85;;;;;;;15.48;99.78;102636.97;5117762;28;20119;-61
2022/07/09 04:21:44;;;;;;;32.38;27.08;;;;;;;15.50;99.72;102637.84;5117992;28;20055;-60
2022/07/09 04:24:09;;;;;;;33.28;26.77;;;;;;;15.57;99.33;102636.09;5117942;28;20024;-60
2022/07/09 04:26:35;;;;;;;38.03;28.05;;;;;;;15.55;99.67;102633.44;5117855;28;20039;-59
2022/07/09 04:29:00;;;;;;;37.35;27.27;;;;;;;15.58;99.35;102628.16;5117604;28;20487;-60
2022/07/09 04:31:25;;;;;;;33.67;27.13;;;;;;;15.58;99.21;102622.88;5117481;28;20042;-60
2022/07/09 04:33:50;;;;;;;34.55;27.08;;;;;;;15.60;99.21;102620.22;5117694;28;20032;-60
2022/07/09 04:36:16;;;;;;;37.33;28.10;;;;;;;15.63;99.36;102614.91;5117671;28;20035;-61
2022/07/09 04:38:41;;;;;;;40.00;30.00;;;;;;;15.73;99.29;102626.31;5117964;28;20023;-60
2022/07/09 04:41:07;;;;;;;43.35;31.05;;;;;;;15.71;99.57;102630.72;5117460;28;20028;-61
2022/07/09 04:43:32;;;;;;;42.42;31.17;;;;;;;15.65;99.90;102624.59;5117343;28;20039;-59
2022/07/09 04:45:58;;;;;;;41.33;31.45;;;;;;;15.65;100.00;102626.34;5117213;28;20059;-60
2022/07/09 04:48:24;;;;;;;48.05;33.85;;;;;;;15.74;100.00;102628.06;5117574;28;20023;-60
2022/07/09 04:50:49;;;;;;;46.17;32.78;;;;;;;15.89;100.00;102623.56;5117648;28;20350;-59
2022/07/09 04:53:14;;;;;;;44.42;32.95;;;;;;;16.04;99.53;102630.50;5117757;28;20103;-60
2022/07/09 04:55:39;;;;;;;48.28;34.75;;;;;;;16.10;99.20;102627.81;5117037;28;20354;-60
2022/07/09 04:58:05;;;;;;;42.22;32.92;;;;;;;16.20;98.94;102628.59;5117114;28;20023;-60
2022/07/09 05:00:30;;;;;;;45.70;34.22;;;;;;;16.21;98.65;102630.34;5117337;28;20043;-60
2022/07/09 05:02:56;;;;;;;46.92;32.80;;;;;;;16.34;97.80;102622.31;5117119;28;20108;-60
2022/07/09 05:05:25;;;;;;;45.20;34.10;;;;;;;16.33;98.60;102624.97;5117106;28;20414;-60
2022/07/09 05:07:51;;;;;;;47.13;34.72;;;;;;;16.33;98.02;102623.19;5117135;28;20027;-60
2022/07/09 05:10:16;;;;;;;44.30;33.85;;;;;;;16.38;98.31;102622.28;5117127;28;20024;-60
2022/07/09 05:12:42;;;;;;;48.15;34.97;;;;;;;16.34;98.32;102617.03;5117253;28;20027;-60
2022/07/09 05:15:09;;;;;;;44.40;34.88;;;;;;;16.34;98.55;102621.44;5116336;28;20130;-59
2022/07/09 05:17:35;;;;;;;44.20;34.75;;;;;;;16.49;98.15;102628.34;5117091;28;20460;-59
2022/07/09 05:20:05;;;;;;;47.00;35.50;;;;;;;16.52;97.78;102617.75;5116757;28;20027;-60
2022/07/09 05:22:32;;;;;;;45.13;35.30;;;;;;;16.63;97.56;102626.47;5116779;28;20042;-60
2022/07/09 05:24:58;;;;;;;49.10;36.10;;;;;;;16.73;97.53;102620.22;5116581;28;20028;-60
2022/07/09 05:27:23;;;;;;;49.28;36.53;;;;;;;16.75;97.26;102622.84;5116359;28;20058;-60
2022/07/09 05:29:48;;;;;;;50.92;36.20;;;;;;;16.78;96.85;102617.53;5116624;28;20111;-59
2022/07/09 05:32:13;;;;;;;48.25;36.40;;;;;;;16.75;96.81;102621.06;5116381;28;20445;-60
2022/07/09 05:34:39;;;;;;;48.40;36.10;;;;;;;16.79;97.05;102627.22;5116740;28;20355;-60
2022/07/09 05:37:04;;;;;;;44.30;34.53;;;;;;;16.90;97.49;102620.03;5116640;28;20034;-61
2022/07/09 05:39:29;;;;;;;45.90;34.10;;;;;;;17.02;96.48;102618.09;5116426;28;20034;-60
2022/07/09 05:41:55;;;;;;;44.77;33.63;;;;;;;17.15;95.97;102624.13;5116161;28;20085;-59
2022/07/09 05:44:20;;;;;;;42.40;33.28;;;;;;;17.24;96.01;102612.56;5116237;28;20253;-60
2022/07/09 05:46:45;;;;;;;43.33;32.43;;;;;;;17.27;95.11;102618.69;5116331;28;20062;-60
2022/07/09 05:49:10;;;;;;;45.83;33.80;;;;;;;17.23;95.48;102616.97;5116521;28;20600;-60
2022/07/09 05:51:36;;;;;;;43.25;32.80;;;;;;;17.23;95.31;102608.16;5116343;28;20441;-60
2022/07/09 05:54:01;;;;;;;43.33;33.53;;;;;;;17.29;95.54;102605.44;5115649;28;20358;-60
2022/07/09 05:56:27;;;;;;;44.63;34.20;;;;;;;17.30;95.95;102609.84;5116218;28;20032;-61
2022/07/09 05:58:52;;;;;;;42.30;31.92;;;;;;;17.43;94.68;102605.25;5095335;28;20028;-60
2022/07/09 06:01:18;;;;;;;41.23;30.90;;;;;;;17.45;94.54;102612.28;5095742;28;20032;-60
2022/07/09 06:03:43;;;;;;;39.55;31.23;;;;;;;17.44;94.51;102610.53;5095863;28;20270;-60
2022/07/09 06:06:09;;;;;;;36.88;28.98;;;;;;;17.54;94.20;102612.13;5095724;28;20020;-60
2022/07/09 06:08:34;;;;;;;33.88;28.45;;;;;;;17.64;93.49;102613.81;5095483;28;20058;-60
2022/07/09 06:11:00;;;;;;;36.33;27.67;;;;;;;17.59;93.64;102610.31;5095436;28;20036;-60
2022/07/09 06:13:26;;;;;;;36.97;28.33;;;;;;;17.60;93.29;102605.88;5095344;28;20030;-60
2022/07/09 06:15:52;;;;;;;34.72;27.25;;;;;;;17.61;93.31;102613.81;5095430;28;20425;-60
2022/07/09 06:18:18;;;;;;;36.15;27.63;;;;;;;17.75;92.64;102621.59;5095461;28;20427;-60
2022/07/09 06:20:43;;;;;;;32.53;25.35;;;;;;;18.01;91.77;102616.75;5095399;28;20088;-61
2022/07/09 06:23:09;;;;;;;35.30;27.30;;;;;;;18.13;91.65;102623.63;5095400;28;20032;-61
2022/07/09 06:25:34;;;;;;;37.03;26.92;;;;;;;18.28;91.48;102618.06;5095120;28;20028;-61
2022/07/09 06:28:00;;;;;;;35.80;26.95;;;;;;;18.34;90.98;102617.13;5094267;28;20047;-61
2022/07/09 06:30:25;;;;;;;32.47;26.08;;;;;;;18.47;91.73;102613.34;5095104;28;20039;-61
2022/07/09 06:32:51;;;;;;;34.13;26.48;;;;;;;18.53;90.21;102621.16;5095061;28;20492;-61
2022/07/09 06:35:17;;;;;;;32.17;26.45;;;;;;;18.61;90.38;102624.59;5094956;28;20032;-60
2022/07/09 06:37:42;;;;;;;31.85;24.83;;;;;;;18.68;90.03;102612.97;5095209;28;20439;-60
2022/07/09 06:40:08;;;;;;;37.25;27.38;;;;;;;18.76;89.71;102623.44;5095588;28;20024;-60
2022/07/09 06:42:33;;;;;;;32.33;25.23;;;;;;;18.73;89.50;102620.81;5095261;28;20032;-60
2022/07/09 06:44:58;;;;;;;33.22;26.27;;;;;;;18.82;89.15;102619.78;5094895;28;20114;-60
2022/07/09 06:47:24;;;;;;;31.35;24.77;;;;;;;18.99;88.56;102623.84;5094621;28;20032;-60
2022/07/09 06:49:49;;;;;;;30.65;23.85;;;;;;;19.22;87.23;102620.72;5095080;28;20078;-60
2022/07/09 06:52:14;;;;;;;29.85;23.50;;;;;;;19.25;86.32;102622.44;5094868;28;20419;-61
2022/07/09 06:54:39;;;;;;;29.45;23.65;;;;;;;19.23;86.41;102624.25;5094472;28;20038;-60
2022/07/09 06:57:06;;;;;;;33.07;25.93;;;;;;;19.15;86.52;102624.41;5094683;28;20034;-60
2022/07/09 06:59:31;;;;;;;31.10;24.65;;;;;;;19.11;86.58;102623.59;5094774;28;20292;-60
2022/07/09 07:01:57;;;;;;;30.42;23.85;;;;;;;19.12;86.84;102614.75;5094817;28;20366;-61
2022/07/09 07:04:22;;;;;;;28.40;23.33;;;;;;;19.10;87.49;102613.00;5095068;28;20048;-61
2022/07/09 07:06:48;;;;;;;32.72;25.88;;;;;;;19.28;87.64;102622.38;5095109;28;20079;-61
2022/07/09 07:09:18;;;;;;;32.92;24.98;;;;;;;19.42;86.63;102631.78;5094623;28;20100;-61
2022/07/09 07:11:43;;;;;;;30.38;25.40;;;;;;;19.64;85.65;102618.06;5094722;28;20391;-61
2022/07/09 07:14:08;;;;;;;32.08;26.25;;;;;;;19.65;85.63;102618.03;5094435;28;20035;-60
2022/07/09 07:16:34;;;;;;;30.67;24.65;;;;;;;19.62;85.83;102614.56;5094803;28;20157;-61
2022/07/09 07:18:59;;;;;;;31.33;24.27;;;;;;;19.48;85.26;102612.19;5094895;28;20032;-61
2022/07/09 07:21:24;;;;;;;27.50;22.85;;;;;;;19.67;85.63;102618.88;5094168;28;20032;-61
2022/07/09 07:23:49;;;;;;;28.45;22.30;;;;;;;19.73;84.72;102621.41;5094780;28;20084;-61
2022/07/09 07:26:15;;;;;;;27.30;22.08;;;;;;;19.74;84.93;102616.97;5094510;28;20042;-60
2022/07/09 07:28:40;;;;;;;28.33;21.42;;;;;;;19.86;84.93;102615.78;5094349;28;20086;-60
2022/07/09 07:31:06;;;;;;;29.48;22.20;;;;;;;20.00;84.66;102616.34;5094711;28;20111;-61
2022/07/09 07:33:31;;;;;;;28.67;21.43;;;;;;;20.12;83.50;102611.59;5094580;28;20039;-61
2022/07/09 07:35:56;;;;;;;24.67;20.60;;;;;;;20.22;81.91;102619.34;5094693;28;20622;-61
2022/07/09 07:38:22;;;;;;;24.05;20.63;;;;;;;20.28;81.66;102616.50;5096238;28;20358;-61
2022/07/09 07:40:47;;;;;;;23.58;18.88;;;;;;;20.50;81.72;102620.41;5098362;28;20106;-60
2022/07/09 07:43:13;;;;;;;24.10;18.50;;;;;;;20.64;79.64;102618.22;5098453;28;20028;-61
2022/07/09 07:45:38;;;;;;;22.25;18.45;;;;;;;20.78;79.43;102617.88;5098454;28;20040;-61
2022/07/09 07:48:04;;;;;;;25.13;19.13;;;;;;;20.80;78.05;102613.38;5098341;28;20028;-60
2022/07/09 07:50:29;;;;;;;25.85;19.73;;;;;;;20.80;77.72;102600.94;5097946;28;20473;-61
2022/07/09 07:52:54;;;;;;;24.15;19.00;;;;;;;20.99;78.38;102632.34;5098501;28;20032;-60
2022/07/09 07:55:20;;;;;;;24.13;19.58;;;;;;;21.21;77.54;102625.53;5098069;28;20036;-60
2022/07/09 07:57:45;;;;;;;24.13;19.20;;;;;;;21.31;76.66;102629.66;5097935;28;20073;-60
2022/07/09 08:00:11;;;;;;;23.13;18.65;;;;;;;21.37;75.96;102624.16;5097820;28;20720;-59
2022/07/09 08:02:36;;;;;;;24.98;19.90;;;;;;;21.56;75.05;102610.28;5098086;28;20036;-60
2022/07/09 08:05:02;;;;;;;25.80;20.90;;;;;;;21.57;75.15;102612.91;5098048;28;20036;-60
2022/07/09 08:07:27;;;;;;;23.83;21.13;;;;;;;21.44;75.66;102616.88;5097897;28;20270;-60
2022/07/09 08:09:53;;;;;;;29.35;20.75;;;;;;;21.20;76.54;102621.13;5098028;28;20024;-60
2022/07/09 08:12:18;;;;;;;26.60;20.38;;;;;;;21.19;76.91;102620.25;5096996;28;20110;-60
2022/07/09 08:14:44;;;;;;;26.25;21.52;;;;;;;21.23;75.84;102610.38;5094356;28;20077;-60
2022/07/09 08:17:09;;;;;;;26.25;20.63;;;;;;;21.39;75.71;102605.47;5094610;28;20037;-61
2022/07/09 08:19:34;;;;;;;22.05;18.83;;;;;;;21.40;75.25;102602.75;5097643;28;20440;-61
2022/07/09 08:22:00;;;;;;;25.13;19.85;;;;;;;21.57;74.21;102598.69;5097720;28;20454;-61
2022/07/09 08:24:26;;;;;;;26.20;21.42;;;;;;;21.75;74.23;102590.13;5097750;28;20024;-60
2022/07/09 08:26:51;;;;;;;26.25;20.52;;;;;;;21.69;73.67;102587.66;5097405;28;20070;-60
2022/07/09 08:29:16;;;;;;;27.40;21.00;;;;;;;21.71;74.25;102580.47;5097724;28;20090;-60
2022/07/09 08:31:42;;;;;;;25.00;21.20;;;;;;;21.97;74.28;102584.97;5097858;28;20261;-59
2022/07/09 08:34:07;;;;;;;26.27;21.02;;;;;;;22.03;72.50;102590.13;5097419;28;20107;-60
2022/07/09 08:36:32;;;;;;;29.70;21.67;;;;;;;21.96;71.81;102592.09;5097693;28;20027;-61
2022/07/09 08:38:57;;;;;;;24.47;20.40;;;;;;;21.79;72.78;102574.00;5097278;28;20335;-60
2022/07/09 08:41:23;;;;;;;22.60;18.67;;;;;;;21.84;73.57;102566.69;5097196;28;20274;-60
2022/07/09 08:43:52;;;;;;;24.70;20.38;;;;;;;22.00;72.42;102568.88;5097190;28;20344;-60
2022/07/09 08:46:18;;;;;;;26.92;17.75;;;;;;;22.21;71.13;102566.38;5097092;28;20050;-60
2022/07/09 08:48:44;;;;;;;24.38;17.48;;;;;;;22.31;69.61;102569.59;5097364;28;20112;-60
2022/07/09 08:51:10;;;;;;;22.55;18.55;;;;;;;22.36;69.01;102569.41;5096308;28;20059;-59
2022/07/09 08:53:40;;;;;;;21.20;17.25;;;;;;;22.51;69.36;102568.91;5097118;28;20027;-61
2022/07/09 08:56:06;;;;;;;22.73;17.77;;;;;;;22.61;67.94;102558.75;5097231;28;20027;-60
2022/07/09 08:58:31;;;;;;;19.83;15.85;;;;;;;22.70;69.37;102569.06;5096936;28;20029;-60
2022/07/09 09:00:58;;;;;;;21.55;18.17;;;;;;;22.50;67.73;102560.03;5096919;28;20039;-60
2022/07/09 09:03:23;;;;;;;23.52;17.45;;;;;;;22.40;67.90;102566.59;5096883;28;20035;-60
2022/07/09 09:06:09;;;;;;;19.73;17.65;;;;;;;22.32;68.96;102570.47;5097130;28;20111;-60
2022/07/09 09:08:37;;;;;;;20.40;16.98;;;;;;;22.45;67.84;102564.66;5096564;28;20101;-60
2022/07/09 09:11:04;;;;;;;21.80;17.10;;;;;;;22.82;67.37;102566.00;5096535;28;20034;-60
2022/07/09 09:13:30;;;;;;;19.48;17.35;;;;;;;22.82;66.57;102558.88;5096556;28;20104;-61
2022/07/09 09:16:03;;;;;;;18.70;16.27;;;;;;;22.69;67.78;102565.53;5096345;28;20058;-59
2022/07/09 09:18:29;;;;;;;21.65;16.13;;;;;;;22.56;67.76;102565.13;5096475;28;20458;-60
2022/07/09 09:20:54;;;;;;;20.65;15.98;;;;;;;22.42;67.48;102562.06;5096397;28;20035;-61
2022/07/09 09:23:19;;;;;;;17.63;15.50;;;;;;;22.28;68.58;102558.16;5096326;28;20028;-61
2022/07/09 09:25:44;;;;;;;21.08;15.63;;;;;;;22.40;68.31;102550.59;5096356;28;20662;-60
2022/07/09 09:28:14;;;;;;;21.48;16.05;;;;;;;22.28;67.97;102559.03;5096430;28;20054;-60
2022/07/09 09:30:43;;;;;;;19.88;17.13;;;;;;;22.12;69.24;102566.69;5096145;28;20054;-60
2022/07/09 09:33:08;;;;;;;19.73;16.77;;;;;;;22.09;69.76;102556.13;5096153;28;20028;-61
2022/07/09 09:35:35;;;;;;;20.25;16.23;;;;;;;22.07;70.94;102559.78;5096191;28;20099;-60
2022/07/09 09:38:00;;;;;;;20.85;16.08;;;;;;;22.12;70.43;102555.16;5095832;28;20342;-61
2022/07/09 09:40:26;;;;;;;21.85;17.30;;;;;;;22.34;68.97;102555.28;5095827;28;20103;-60
2022/07/09 09:42:52;;;;;;;20.33;17.42;;;;;;;22.74;67.80;102557.38;5096021;28;20073;-60
2022/07/09 09:45:18;;;;;;;19.98;17.98;;;;;;;22.90;67.02;102550.56;5095874;28;20040;-62
2022/07/09 09:47:47;;;;;;;18.40;16.40;;;;;;;22.98;68.17;102556.50;5095791;28;20078;-61
2022/07/09 09:50:17;;;;;;;21.13;17.90;;;;;;;22.71;67.93;102553.00;5095869;28;20028;-60
2022/07/09 09:52:45;;;;;;;21.15;16.85;;;;;;;22.41;68.50;102557.66;5095567;28;20435;-61
2022/07/09 09:55:12;;;;;;;18.67;15.23;;;;;;;22.15;70.15;102557.72;5096077;28;20032;-61
2022/07/09 09:57:39;;;;;;;18.70;15.23;;;;;;;21.93;71.51;102552.22;5095865;28;20035;-60
2022/07/09 10:00:06;;;;;;;20.92;18.45;;;;;;;21.76;71.86;102557.22;5095892;28;20032;-60
2022/07/09 10:02:32;;;;;;;23.38;17.90;;;;;;;21.58;73.05;102558.69;5095598;28;20339;-60
2022/07/09 10:04:59;;;;;;;21.02;16.65;;;;;;;21.47;73.52;102553.69;5095399;28;20040;-59
2022/07/09 10:07:25;;;;;;;19.50;15.70;;;;;;;21.39;73.84;102555.75;5095399;28;20036;-61
2022/07/09 10:09:56;;;;;;;20.15;15.90;;;;;;;21.40;74.49;102564.59;5095543;28;20032;-60
2022/07/09 10:12:29;;;;;;;19.52;15.48;;;;;;;21.44;73.13;102560.94;5095610;28;20052;-61
2022/07/09 10:14:54;;;;;;;19.17;15.40;;;;;;;21.33;72.91;102534.59;5095452;28;20043;-62
2022/07/09 10:17:20;;;;;;;17.65;13.90;;;;;;;21.53;72.79;102555.28;5095339;28;20024;-61
2022/07/09 10:19:57;;;;;;;15.57;13.88;;;;;;;21.70;71.73;102555.63;5095473;28;20036;-61
2022/07/09 10:22:37;;;;;;;16.42;12.38;;;;;;;21.76;71.75;102550.09;5095573;28;20107;-62
2022/07/09 10:25:05;;;;;;;16.30;12.35;;;;;;;22.00;71.11;102553.75;5095431;28;20089;-61
2022/07/09 10:27:44;;;;;;;12.57;11.25;;;;;;;22.47;70.33;102544.13;5094416;28;20079;-61
2022/07/09 10:30:32;;;;;;;16.52;10.98;;;;;;;22.79;69.10;102547.44;5095471;28;20051;-62
2022/07/09 10:33:11;;;;;;;11.32;9.85;;;;;;;22.82;68.42;102553.53;5095180;28;20475;-61
2022/07/09 10:35:48;;;;;;;10.65;8.35;;;;;;;22.74;67.65;102562.72;5095381;28;20032;-61
2022/07/09 10:38:15;;;;;;;9.07;7.57;;;;;;;22.76;66.60;102548.38;5095508;28;20028;-61
2022/07/09 10:40:55;;;;;;;11.85;7.50;;;;;;;22.77;66.63;102542.16;5095010;28;20035;-61
2022/07/09 10:43:36;;;;;;;9.23;6.80;;;;;;;22.62;66.09;102549.81;5095226;28;20028;-60
2022/07/09 10:46:10;;;;;;;12.07;6.50;;;;;;;22.50;67.67;102552.03;5095066;28;20043;-61
2022/07/09 10:48:35;;;;;;;7.63;6.43;;;;;;;22.53;67.67;102541.22;5094898;28;20036;-60
2022/07/09 10:51:00;;;;;;;8.85;5.75;;;;;;;22.84;66.66;102540.13;5094819;28;20032;-60
2022/07/09 10:53:29;;;;;;;7.57;5.20;;;;;;;23.21;64.87;102535.09;5095359;28;20051;-61
2022/07/09 10:55:54;;;;;;;7.90;3.92;;;;;;;23.29;64.50;102532.13;5094894;28;20605;-61
2022/07/09 10:58:20;;;;;;;5.85;3.58;;;;;;;23.20;62.05;102533.34;5095401;28;20039;-61
2022/07/09 11:00:55;;;;;;;5.47;3.50;;;;;;;23.25;62.47;102536.72;5094616;28;20040;-61
2022/07/09 11:03:27;;;;;;;5.45;3.47;;;;;;;23.49;61.32;102540.22;5094422;28;20447;-61
2022/07/09 11:05:52;;;;;;;5.35;3.50;;;;;;;23.86;60.51;102544.97;5094790;28;20036;-61